Time;durP1;ratioP1;P1;durP2;ratioP2;P2;SDS_P1;SDS_P2;PMS_P1;PMS_P2;Temp;Humidity;BMP_temperature;BMP_pressure;BME280_temperature;BME280_humidity;BME280_pressure;Samples;Min_cycle;Max_cycle;Signal;HPM_P1;HPM_P2
2024/02/15 00:00:01;;;;;;;26.50;11.30;;;11.80;99.90;;;11.68;100.00;100636.59;5020993;28;20041;-83
2024/02/15 00:02:33;;;;;;;22.77;12.00;;;11.90;99.90;;;11.72;100.00;100645.81;5040265;28;20093;-83
2024/02/15 00:05:01;;;;;;;23.40;11.38;;;11.80;99.90;;;11.72;100.00;100639.66;5022217;28;20041;-83
2024/02/15 00:07:29;;;;;;;22.38;11.10;;;11.80;99.90;;;11.71;100.00;100638.84;5021765;28;20378;-83
2024/02/15 00:09:58;;;;;;;22.02;11.40;;;11.90;99.90;;;11.69;100.00;100634.75;5022539;28;20045;-82
2024/02/15 00:12:26;;;;;;;26.80;12.27;;;11.90;99.90;;;11.68;100.00;100649.13;5024466;28;20184;-83
2024/02/15 00:14:54;;;;;;;24.55;11.48;;;11.80;99.90;;;11.71;100.00;100646.03;5043926;28;20041;-83
2024/02/15 00:17:21;;;;;;;23.67;11.60;;;11.80;99.90;;;11.71;100.00;100646.88;5043698;28;20041;-83
2024/02/15 00:19:50;;;;;;;26.70;12.50;;;11.90;99.90;;;11.72;100.00;100645.81;5044549;28;20065;-83
2024/02/15 00:22:17;;;;;;;27.08;12.20;;;11.80;99.90;;;11.71;100.00;100643.34;5043381;28;20049;-83
2024/02/15 00:24:45;;;;;;;30.13;13.27;;;11.80;99.90;;;11.71;100.00;100649.53;5058410;28;20568;-83
2024/02/15 00:27:12;;;;;;;23.40;13.15;;;11.90;99.90;;;11.71;100.00;100641.53;5043838;28;20081;-83
2024/02/15 00:29:40;;;;;;;23.40;11.95;;;11.90;99.90;;;11.72;100.00;100645.81;5022195;28;20078;-83
2024/02/15 00:32:10;;;;;;;23.20;12.90;;;11.90;99.90;;;11.75;100.00;100648.06;5013654;28;20476;-83
2024/02/15 00:34:38;;;;;;;23.20;12.07;;;11.80;99.90;;;11.74;100.00;100649.09;5025232;28;20049;-83
2024/02/15 00:37:07;;;;;;;25.92;13.13;;;11.90;99.90;;;11.76;100.00;100646.19;5042974;28;20048;-83
2024/02/15 00:39:35;;;;;;;22.98;13.02;;;11.90;99.90;;;11.76;100.00;100649.72;5024378;28;20464;-83
2024/02/15 00:42:03;;;;;;;26.80;12.80;;;11.90;99.90;;;11.77;100.00;100648.66;5056616;28;20467;-83
2024/02/15 00:44:30;;;;;;;27.67;13.52;;;11.90;99.90;;;11.77;100.00;100648.66;5023462;28;20050;-83
2024/02/15 00:46:58;;;;;;;22.92;13.27;;;11.80;99.90;;;11.77;100.00;100648.66;5006039;28;20050;-83
2024/02/15 00:49:27;;;;;;;26.55;12.73;;;11.90;99.90;;;11.78;100.00;100650.31;5020789;28;20489;-83
2024/02/15 00:51:55;;;;;;;22.20;12.90;;;11.90;99.90;;;11.79;100.00;100661.81;5039314;28;20107;-83
2024/02/15 00:54:24;;;;;;;23.88;13.23;;;11.90;99.90;;;11.77;100.00;100659.38;5038895;28;20555;-83
2024/02/15 00:56:52;;;;;;;26.13;13.20;;;11.90;99.90;;;11.78;100.00;100652.97;5054068;28;20591;-83
2024/02/15 00:59:19;;;;;;;29.00;13.32;;;11.90;99.90;;;11.80;100.00;100661.59;5039032;28;20041;-83
2024/02/15 01:01:48;;;;;;;28.30;13.13;;;11.90;99.90;;;11.77;100.00;100647.84;5039773;28;20088;-83
2024/02/15 01:04:16;;;;;;;28.30;13.77;;;11.90;99.90;;;11.79;100.00;100653.78;5054200;28;20049;-83
2024/02/15 01:06:44;;;;;;;30.00;13.30;;;11.90;99.90;;;11.79;100.00;100651.13;5021752;28;20402;-83
2024/02/15 01:09:13;;;;;;;27.50;13.27;;;11.90;99.90;;;11.79;100.00;100648.44;5021234;28;20497;-83
2024/02/15 01:11:41;;;;;;;28.25;13.77;;;11.90;99.90;;;11.77;100.00;100648.66;5021173;28;20143;-83
2024/02/15 01:14:09;;;;;;;26.52;13.55;;;11.90;99.90;;;11.80;100.00;100650.91;5039271;28;20049;-83
2024/02/15 01:16:37;;;;;;;33.25;14.35;;;11.90;99.90;;;11.83;100.00;100647.03;5021119;28;20409;-83
2024/02/15 01:19:05;;;;;;;32.78;14.15;;;11.90;99.90;;;11.83;100.00;100642.50;5039089;28;20099;-83
2024/02/15 01:21:33;;;;;;;32.13;13.93;;;11.90;99.90;;;11.86;100.00;100641.25;5037870;28;20128;-83
2024/02/15 01:24:01;;;;;;;24.80;12.75;;;11.90;99.90;;;11.86;100.00;100641.25;5038675;28;20045;-83
2024/02/15 01:26:29;;;;;;;31.52;14.20;;;11.90;99.90;;;11.84;100.00;100638.78;5020276;28;20095;-83
2024/02/15 01:28:58;;;;;;;38.78;14.90;;;11.90;99.90;;;11.81;100.00;100644.53;5037363;28;20132;-83
2024/02/15 01:31:25;;;;;;;28.65;13.75;;;11.90;99.90;;;11.83;100.00;100631.81;5038065;28;20101;-83
2024/02/15 01:33:53;;;;;;;33.95;13.77;;;11.90;99.90;;;11.85;100.00;100631.56;5021059;28;20050;-83
2024/02/15 01:36:20;;;;;;;26.35;13.15;;;12.00;99.90;;;11.88;100.00;100635.69;5020876;28;20037;-83
2024/02/15 01:38:47;;;;;;;26.60;13.38;;;12.00;99.90;;;11.87;100.00;100634.06;5019708;28;20069;-83
2024/02/15 01:41:14;;;;;;;28.95;12.77;;;12.00;99.90;;;11.88;100.00;100631.16;5038341;28;20424;-83
2024/02/15 01:43:45;;;;;;;25.65;12.93;;;12.00;99.90;;;11.88;100.00;100633.00;5019877;28;20113;-83
2024/02/15 01:46:15;;;;;;;;;;;12.00;99.90;;;11.85;100.00;100619.03;5020418;28;20456;-83
2024/02/15 01:48:43;;;;;;;29.83;14.10;;;12.00;99.90;;;11.87;100.00;100624.19;5037556;28;20392;-82
2024/02/15 01:51:14;;;;;;;31.75;13.90;;;12.00;99.90;;;11.88;100.00;100623.16;5037959;28;20106;-83
2024/02/15 01:53:43;;;;;;;28.93;13.57;;;12.00;99.90;;;11.89;100.00;100621.28;5037946;28;20057;-83
2024/02/15 01:56:11;;;;;;;27.40;13.27;;;12.00;99.90;;;11.89;100.00;100615.94;5038273;28;20124;-83
2024/02/15 01:58:42;;;;;;;28.60;14.18;;;12.00;99.90;;;11.90;100.00;100622.91;5037779;28;20045;-83
2024/02/15 02:01:10;;;;;;;29.40;13.02;;;12.00;99.90;;;11.91;100.00;100627.22;5019618;28;20045;-83
2024/02/15 02:03:39;;;;;;;24.13;13.23;;;12.00;99.90;;;11.89;100.00;100621.28;5019515;28;20056;-83
2024/02/15 02:06:08;;;;;;;34.97;13.60;;;11.90;99.90;;;11.83;100.00;100622.97;5037573;28;20101;-83
2024/02/15 02:08:35;;;;;;;29.35;13.48;;;11.90;99.90;;;11.81;100.00;100617.81;5004060;28;20429;-83
2024/02/15 02:11:03;;;;;;;32.30;14.02;;;11.90;99.90;;;11.82;100.00;100622.16;5019197;28;20413;-82
2024/02/15 02:13:31;;;;;;;27.58;12.73;;;11.90;99.90;;;11.80;100.00;100613.47;5020003;28;20116;-83
2024/02/15 02:15:59;;;;;;;26.17;12.10;;;11.90;99.90;;;11.78;100.00;100596.03;5019477;28;20049;-83
2024/02/15 02:18:27;;;;;;;31.27;11.77;;;11.90;99.90;;;11.81;100.00;100601.78;5019789;28;20426;-83
2024/02/15 02:20:55;;;;;;;30.25;12.80;;;11.90;99.90;;;11.83;100.00;100598.91;5019282;28;20516;-83
2024/02/15 02:23:27;;;;;;;34.17;12.48;;;11.90;99.90;;;11.82;100.00;100595.44;5018669;28;20059;-82
2024/02/15 02:25:57;;;;;;;28.38;11.50;;;11.90;99.90;;;11.81;100.00;100591.09;5037333;28;20098;-83
2024/02/15 02:28:25;;;;;;;28.23;11.88;;;11.90;99.90;;;11.81;99.73;100591.09;5036929;28;20497;-83
2024/02/15 02:30:53;;;;;;;22.67;12.30;;;11.90;99.90;;;11.81;99.82;100584.94;5019646;28;20501;-83
2024/02/15 02:33:22;;;;;;;22.45;11.90;;;11.90;99.90;;;11.82;99.77;100590.09;5019164;28;20049;-83
2024/02/15 02:35:50;;;;;;;32.35;12.18;;;11.90;99.90;;;11.78;99.75;100583.50;5037390;28;20046;-83
2024/02/15 02:38:17;;;;;;;24.83;11.30;;;11.90;99.90;;;11.77;99.73;100581.88;5002915;28;20057;-83
2024/02/15 02:40:45;;;;;;;24.73;11.50;;;11.90;99.90;;;11.79;99.70;100587.00;5003334;28;20523;-83
2024/02/15 02:43:14;;;;;;;26.35;10.75;;;11.90;99.90;;;11.77;99.81;100579.19;5018693;28;20123;-83
2024/02/15 02:45:42;;;;;;;21.95;10.65;;;11.90;99.90;;;11.78;99.92;100580.81;5018882;28;20140;-83
2024/02/15 02:48:10;;;;;;;28.20;11.13;;;11.90;99.90;;;11.76;100.00;100576.72;5052483;28;20136;-83
2024/02/15 02:50:37;;;;;;;19.83;9.73;;;11.90;99.90;;;11.78;99.69;100577.34;5026077;28;20246;-83
2024/02/15 02:53:05;;;;;;;22.52;10.63;;;11.90;99.90;;;11.74;99.63;100573.47;5056910;28;20083;-83
2024/02/15 02:55:33;;;;;;;24.40;10.35;;;11.90;99.90;;;11.76;99.65;100577.56;5039886;28;20072;-83
2024/02/15 02:58:00;;;;;;;29.83;10.85;;;11.90;99.90;;;11.80;99.63;100572.59;5038906;28;20112;-83
2024/02/15 03:00:29;;;;;;;22.60;10.35;;;11.90;99.90;;;11.76;99.35;100564.22;5038308;28;20048;-82
2024/02/15 03:02:57;;;;;;;19.92;9.13;;;11.90;99.90;;;11.71;99.60;100569.38;5041818;28;20116;-83
2024/02/15 03:05:25;;;;;;;24.95;9.38;;;11.80;99.90;;;11.68;99.56;100564.47;5037559;28;20124;-82
2024/02/15 03:07:52;;;;;;;26.75;9.48;;;11.90;99.90;;;11.68;99.51;100558.31;5017593;28;20088;-83
2024/02/15 03:10:21;;;;;;;20.35;9.45;;;11.90;99.90;;;11.67;99.49;100562.00;5015261;28;20049;-82
2024/02/15 03:12:48;;;;;;;21.88;8.57;;;11.90;99.90;;;11.68;99.81;100553.78;4999597;28;20053;-83
2024/02/15 03:15:15;;;;;;;20.85;8.55;;;11.90;99.90;;;11.64;100.00;100557.09;5017728;28;20073;-83
2024/02/15 03:17:51;;;;;;;18.48;9.00;;;11.90;99.90;;;11.66;100.00;100553.16;5019542;28;20406;-82
2024/02/15 03:20:21;;;;;;;21.52;9.02;;;11.90;99.90;;;11.69;100.00;100560.75;5036927;28;20069;-83
2024/02/15 03:22:53;;;;;;;20.45;8.43;;;11.90;99.90;;;11.68;100.00;100561.78;5019152;28;20041;-83
2024/02/15 03:25:23;;;;;;;19.17;7.95;;;11.90;99.90;;;11.70;100.00;100559.72;5036430;28;20045;-83
2024/02/15 03:27:52;;;;;;;21.40;9.23;;;11.90;99.90;;;11.74;100.00;100558.25;5036683;28;20136;-83
2024/02/15 03:30:20;;;;;;;21.08;8.15;;;11.90;99.90;;;11.73;100.00;100555.81;5018325;28;20049;-83
2024/02/15 03:32:50;;;;;;;26.35;9.18;;;11.90;99.90;;;11.75;99.94;100554.53;5018968;28;20049;-83
2024/02/15 03:35:20;;;;;;;20.93;8.67;;;11.90;99.90;;;11.76;99.96;100537.50;5036311;28;20049;-83
2024/02/15 03:37:50;;;;;;;;;;;12.00;99.90;;;11.77;99.88;100551.66;5018918;28;20285;-83
2024/02/15 03:40:19;;;;;;;23.77;8.05;;;11.90;99.90;;;11.75;99.74;100538.50;5035975;28;19925;-82
2024/02/15 03:42:47;;;;;;;20.70;8.63;;;12.00;99.90;;;11.75;99.67;100540.34;5017469;28;20046;-83
2024/02/15 03:45:14;;;;;;;19.55;8.85;;;11.90;99.90;;;11.75;99.64;100546.50;5023281;28;20084;-83
2024/02/15 03:47:42;;;;;;;22.63;9.07;;;12.00;99.90;;;11.78;99.61;100548.75;5041486;28;20493;-83
2024/02/15 03:50:14;;;;;;;20.98;8.45;;;12.00;99.90;;;11.82;99.49;100550.00;5024172;28;20097;-82
2024/02/15 03:52:44;;;;;;;16.67;7.95;;;12.00;99.90;;;11.84;99.31;100558.59;5041632;28;20050;-83
2024/02/15 03:55:12;;;;;;;23.67;8.75;;;12.00;99.90;;;11.86;99.10;100547.72;5041423;28;20053;-83
2024/02/15 03:57:41;;;;;;;25.13;8.48;;;12.00;99.90;;;11.87;99.05;100552.03;5023007;28;20076;-83
2024/02/15 04:00:10;;;;;;;20.15;8.05;;;12.00;99.90;;;11.89;98.80;100557.97;5040722;28;20572;-83
2024/02/15 04:02:40;;;;;;;20.50;8.43;;;12.00;99.90;;;11.88;98.71;100559.00;5041196;28;20068;-83
2024/02/15 04:05:11;;;;;;;15.82;7.78;;;12.00;99.90;;;11.92;98.65;100554.03;5041599;28;20057;-83
2024/02/15 04:07:39;;;;;;;16.95;7.95;;;12.00;99.90;;;11.90;98.43;100556.09;5039194;28;20408;-83
2024/02/15 04:10:09;;;;;;;18.13;8.40;;;12.00;99.90;;;11.92;98.20;100554.03;5055825;28;20045;-83
2024/02/15 04:12:36;;;;;;;19.55;8.82;;;12.00;99.90;;;11.95;98.26;100548.25;5022591;28;20144;-83
2024/02/15 04:15:07;;;;;;;14.88;7.45;;;12.00;99.90;;;11.93;97.87;100553.81;5055781;28;20594;-83
2024/02/15 04:17:34;;;;;;;20.02;7.40;;;12.00;99.90;;;11.90;97.92;100540.88;5074118;28;20099;-83
2024/02/15 04:20:06;;;;;;;16.73;8.02;;;12.00;99.90;;;11.89;97.57;100541.91;5042388;28;20480;-83
2024/02/15 04:22:36;;;;;;;;;;;12.00;99.90;;;11.89;97.61;100543.78;5024487;28;20049;-83
2024/02/15 04:25:05;;;;;;;20.67;7.57;;;12.00;99.90;;;11.91;97.53;100547.88;5040468;28;19952;-83
2024/02/15 04:27:33;;;;;;;20.63;8.32;;;12.00;99.90;;;11.93;97.54;100540.47;5040611;28;20509;-83
2024/02/15 04:30:04;;;;;;;18.95;7.13;;;12.00;99.90;;;11.93;97.19;100539.63;5022424;28;20144;-82
2024/02/15 04:32:33;;;;;;;14.00;6.63;;;12.00;99.90;;;11.93;97.01;100545.81;5039920;28;20049;-83
2024/02/15 04:35:01;;;;;;;20.23;7.15;;;12.00;99.90;;;11.96;97.07;100541.88;5022363;28;20041;-83
2024/02/15 04:37:31;;;;;;;20.35;7.20;;;12.00;99.90;;;11.97;96.88;100547.00;5006783;28;20049;-82
2024/02/15 04:40:08;;;;;;;17.10;7.15;;;12.00;99.90;;;11.98;96.93;100551.31;5040877;28;20559;-82
2024/02/15 04:42:37;;;;;;;16.38;6.97;;;12.00;99.90;;;12.00;96.64;100540.38;5040251;28;20483;-83
2024/02/15 04:45:08;;;;;;;17.77;6.68;;;12.00;99.90;;;11.92;96.43;100546.03;5022303;28;20565;-83
2024/02/15 04:47:36;;;;;;;17.13;6.47;;;12.00;99.90;;;11.94;96.51;100541.28;5040537;28;20037;-83
2024/02/15 04:50:05;;;;;;;14.93;6.13;;;12.00;99.90;;;11.93;96.43;100542.31;5022234;28;20559;-82
2024/02/15 04:52:33;;;;;;;17.35;6.50;;;12.00;99.90;;;11.95;96.50;100549.06;5022605;28;20476;-83
2024/02/15 04:55:04;;;;;;;16.40;5.95;;;12.00;99.90;;;11.96;96.43;100534.69;5038632;28;20040;-83
2024/02/15 04:57:34;;;;;;;14.45;6.00;;;12.00;99.90;;;11.95;96.22;100543.72;5023757;28;20484;-83
2024/02/15 05:00:09;;;;;;;13.88;5.85;;;12.00;99.90;;;11.97;96.08;100530.16;5040363;28;20080;-82
2024/02/15 05:02:40;;;;;;;12.13;5.30;;;12.00;99.90;;;11.96;95.76;100539.22;5021407;28;20045;-86
2024/02/15 05:05:08;;;;;;;15.85;4.97;;;12.00;99.90;;;11.98;95.88;100542.47;5050692;28;20041;-86
2024/02/15 05:07:37;;;;;;;12.43;5.05;;;12.00;99.90;;;11.99;95.70;100538.75;5051401;28;20048;-86
2024/02/15 05:10:08;;;;;;;11.55;4.88;;;12.00;99.90;;;11.99;95.57;100533.41;5002208;28;20061;-84
2024/02/15 05:12:35;;;;;;;;;;;12.00;99.90;;;11.97;95.33;100528.28;5019821;28;20421;-85
2024/02/15 05:15:09;;;;;;;11.00;4.68;;;12.00;99.90;;;11.97;95.16;100524.81;5036565;28;20392;-85
2024/02/15 05:17:40;;;;;;;11.88;4.53;;;12.00;99.90;;;11.93;95.02;100524.41;5051201;28;20041;-85
2024/02/15 05:20:12;;;;;;;11.80;4.20;;;12.00;99.90;;;11.93;95.06;100519.06;5000991;28;20045;-85
2024/02/15 05:22:43;;;;;;;10.68;4.15;;;12.00;99.90;;;11.93;95.04;100519.06;5019628;28;20132;-85
2024/02/15 05:25:15;;;;;;;11.98;4.28;;;12.00;99.90;;;11.94;94.88;100519.88;5035546;28;20132;-84
2024/02/15 05:27:44;;;;;;;14.13;4.72;;;12.00;99.90;;;11.93;94.57;100518.25;5051286;28;20052;-83
2024/02/15 05:30:13;;;;;;;6.75;3.85;;;12.00;99.90;;;11.94;94.81;100520.72;5018056;28;20501;-84
2024/02/15 05:32:43;;;;;;;13.95;4.07;;;12.00;99.90;;;11.96;94.71;100517.84;5017655;28;20136;-84
2024/02/15 05:35:11;;;;;;;11.57;4.20;;;12.00;99.90;;;11.97;95.01;100530.16;5018817;28;20508;-84
2024/02/15 05:37:39;;;;;;;10.77;4.25;;;12.00;99.90;;;11.99;94.83;100518.19;5001472;28;20038;-84
2024/02/15 05:40:14;;;;;;;11.90;4.30;;;12.00;99.90;;;11.99;94.68;100520.88;5035281;28;20052;-85
2024/02/15 05:42:45;;;;;;;13.20;4.35;;;12.00;99.90;;;12.01;94.47;100520.66;4971834;28;20144;-82
2024/02/15 05:45:34;;;;;;;12.73;3.97;;;12.00;99.90;;;12.01;94.57;100526.81;5036269;28;20120;-85
2024/02/15 05:48:01;;;;;;;8.73;3.75;;;12.00;99.90;;;12.01;94.31;100523.34;5014817;28;20053;-84
2024/02/15 05:50:29;;;;;;;8.65;3.72;;;12.00;99.90;;;12.01;94.19;100518.81;4954119;28;20045;-84
2024/02/15 05:52:58;;;;;;;12.10;3.80;;;12.00;99.90;;;12.00;93.92;100519.00;5018837;28;20045;-84
2024/02/15 05:55:31;;;;;;;8.27;3.67;;;12.10;99.90;;;12.02;93.90;100523.13;5035948;28;20045;-84
2024/02/15 05:58:00;;;;;;;12.68;4.10;;;12.10;99.90;;;12.00;93.88;100513.66;5036208;28;20038;-84
2024/02/15 06:00:29;;;;;;;13.57;3.92;;;12.10;99.90;;;12.02;94.26;100506.25;5037579;28;20156;-82
2024/02/15 06:02:57;;;;;;;11.00;4.07;;;12.10;99.90;;;12.01;94.11;100510.78;4988441;28;20045;-83
2024/02/15 06:05:25;;;;;;;13.45;4.50;;;12.10;99.90;;;12.00;94.18;100511.00;5020384;28;20038;-83
2024/02/15 06:07:52;;;;;;;16.05;4.32;;;12.10;99.90;;;12.01;94.05;100509.97;5018470;28;20053;-83
2024/02/15 06:10:20;;;;;;;8.77;4.10;;;12.10;99.90;;;12.02;93.94;100514.28;5052680;28;20132;-82
2024/02/15 06:12:47;;;;;;;10.30;4.07;;;12.10;99.90;;;12.00;94.05;100511.81;5036844;28;20148;-83
2024/02/15 06:15:17;;;;;;;12.13;4.40;;;12.00;99.90;;;11.98;94.02;100523.75;5019930;28;20053;-83
2024/02/15 06:17:45;;;;;;;14.85;4.40;;;12.00;99.90;;;11.98;94.18;100519.22;5020249;28;20041;-83
2024/02/15 06:20:17;;;;;;;12.32;4.18;;;12.00;99.90;;;11.99;94.19;100520.88;5019861;28;20037;-82
2024/02/15 06:22:46;;;;;;;11.80;4.47;;;12.00;99.90;;;12.00;93.91;100519.81;5020639;28;20052;-82
2024/02/15 06:25:20;;;;;;;15.65;4.32;;;12.00;99.90;;;12.03;93.89;100522.06;5036951;28;20049;-83
2024/02/15 06:27:48;;;;;;;14.05;4.80;;;12.00;99.90;;;12.03;93.98;100515.91;4985245;28;20498;-83
2024/02/15 06:41:16;;;;;;;16.75;5.00;;;12.00;99.90;;;12.01;93.71;100524.16;5017316;28;20050;-83
2024/02/15 06:43:43;;;;;;;11.23;4.70;;;12.00;99.90;;;12.02;93.77;100520.44;5016495;28;20046;-83
2024/02/15 06:46:13;;;;;;;11.25;4.82;;;12.00;99.90;;;12.02;93.79;100524.97;5016385;28;20422;-83
2024/02/15 06:48:44;;;;;;;12.30;4.75;;;12.00;99.90;;;11.99;93.59;100515.53;5017768;28;20042;-83
2024/02/15 06:51:14;;;;;;;16.20;4.28;;;12.00;99.90;;;11.96;93.32;100517.84;5020453;28;20041;-83
2024/02/15 06:53:42;;;;;;;11.75;4.68;;;12.00;99.90;;;11.98;93.38;100521.91;5018599;28;20054;-83
2024/02/15 06:56:11;;;;;;;10.10;4.40;;;12.00;99.90;;;11.98;93.46;100516.56;5018543;28;20567;-83
2024/02/15 06:58:40;;;;;;;14.75;5.03;;;12.00;99.90;;;11.98;93.63;100519.22;5037181;28;20045;-83
2024/02/15 07:01:07;;;;;;;12.68;4.70;;;12.00;99.90;;;11.99;93.57;100515.53;5019425;28;20049;-81
2024/02/15 07:03:37;;;;;;;12.05;4.32;;;12.00;99.90;;;12.01;93.57;100516.13;5036935;28;20504;-81
2024/02/15 07:06:05;;;;;;;11.20;4.53;;;12.10;99.90;;;12.02;93.51;100520.44;5019243;28;20068;-81
2024/02/15 07:08:33;;;;;;;12.27;4.65;;;12.10;99.90;;;12.04;93.47;100525.56;5036917;28;20038;-81
2024/02/15 07:11:02;;;;;;;12.32;4.80;;;12.10;99.90;;;12.05;93.35;100511.16;5035704;28;20103;-80
2024/02/15 07:13:29;;;;;;;14.15;5.88;;;12.10;99.90;;;12.04;93.41;100521.03;5018946;28;20042;-81
2024/02/15 07:15:56;;;;;;;14.02;4.47;;;12.10;99.90;;;12.06;93.41;100523.50;5037468;28;20045;-81
2024/02/15 07:18:25;;;;;;;11.70;4.40;;;12.10;99.90;;;12.05;93.44;100514.66;5018733;28;20096;-81
2024/02/15 07:20:54;;;;;;;13.27;4.75;;;12.10;99.90;;;12.05;93.67;100516.50;5019361;28;20089;-81
2024/02/15 07:23:21;;;;;;;13.85;5.28;;;12.10;99.90;;;12.05;93.84;100513.81;5036504;28;20571;-81
2024/02/15 07:25:53;;;;;;;12.20;5.15;;;12.10;99.90;;;12.05;93.64;100517.34;5018841;28;20053;-81
2024/02/15 07:28:21;;;;;;;13.90;4.57;;;12.10;99.90;;;12.04;93.74;100518.34;4985790;28;20054;-81
2024/02/15 07:30:50;;;;;;;12.32;5.13;;;12.10;99.90;;;12.05;93.77;100512.00;5036813;28;20459;-81
2024/02/15 07:33:20;;;;;;;16.30;4.78;;;12.10;99.90;;;12.08;93.79;100505.38;5019884;28;20048;-81
2024/02/15 07:35:50;;;;;;;17.08;4.40;;;12.10;99.90;;;12.07;93.84;100503.75;5019571;28;20524;-81
2024/02/15 07:38:22;;;;;;;11.57;4.65;;;12.10;99.90;;;12.05;93.61;100495.94;5019215;28;20394;-81
2024/02/15 07:40:50;;;;;;;14.82;3.95;;;12.10;99.90;;;12.04;93.78;100496.16;5018388;28;20053;-81
2024/02/15 07:43:17;;;;;;;18.20;4.20;;;12.10;99.90;;;12.06;94.00;100491.41;5036230;28;20513;-81
2024/02/15 07:45:47;;;;;;;20.45;4.70;;;12.10;99.90;;;12.06;93.76;100480.72;5002705;28;20136;-81
2024/02/15 07:48:14;;;;;;;10.15;4.28;;;12.10;99.90;;;12.04;93.76;100472.91;5037061;28;20076;-81
2024/02/15 07:50:43;;;;;;;12.07;4.70;;;12.10;99.90;;;12.06;93.71;100491.41;5001718;28;20073;-81
2024/02/15 07:53:11;;;;;;;16.23;4.65;;;12.10;99.90;;;12.07;93.60;100496.53;5017774;28;20045;-81
2024/02/15 07:55:41;;;;;;;14.75;4.35;;;12.10;99.90;;;12.06;93.58;100486.06;5017733;28;20115;-81
2024/02/15 07:58:08;;;;;;;11.55;3.75;;;12.10;99.90;;;12.05;93.77;100492.44;5036090;28;20460;-81
2024/02/15 08:00:37;;;;;;;10.35;3.47;;;12.10;99.90;;;12.05;93.83;100495.09;5002214;28;20147;-81
2024/02/15 08:03:05;;;;;;;12.05;3.90;;;12.10;99.90;;;12.04;94.07;100499.63;5035966;28;20041;-81
2024/02/15 08:05:33;;;;;;;10.48;3.83;;;12.10;99.90;;;12.05;94.18;100505.81;5036309;28;20041;-81
2024/02/15 08:08:00;;;;;;;16.45;3.85;;;12.10;99.90;;;12.04;93.95;100496.97;5036641;28;20037;-81
2024/02/15 08:10:28;;;;;;;13.80;3.60;;;12.10;99.90;;;12.05;94.21;100485.25;5002206;28;20057;-81
2024/02/15 08:12:58;;;;;;;13.85;3.70;;;12.10;99.90;;;12.04;94.12;100496.16;5018392;28;20052;-81
2024/02/15 08:15:27;;;;;;;22.25;4.00;;;12.20;99.90;;;12.04;94.37;100496.16;5002064;28;20080;-81
2024/02/15 08:17:55;;;;;;;10.30;3.58;;;12.20;99.90;;;12.03;94.38;100498.00;5002303;28;20038;-81
2024/02/15 08:20:23;;;;;;;17.70;4.07;;;12.20;99.90;;;12.06;94.42;100500.25;5019555;28;20037;-81
2024/02/15 08:22:50;;;;;;;13.15;3.55;;;12.20;99.90;;;12.05;94.32;100498.63;5018531;28;20417;-80
2024/02/15 08:25:18;;;;;;;12.25;3.47;;;12.20;99.90;;;12.08;94.49;100500.03;5036703;28;20489;-81
2024/02/15 08:27:50;;;;;;;15.60;3.35;;;12.30;99.90;;;12.09;94.70;100490.97;5035808;28;20509;-81
2024/02/15 08:30:20;;;;;;;10.98;3.30;;;12.20;99.90;;;12.07;94.64;100509.91;5037354;28;20395;-81
2024/02/15 08:32:47;;;;;;;13.05;4.18;;;12.30;99.90;;;12.09;94.95;100504.31;5022755;28;20109;-81
2024/02/15 08:35:15;;;;;;;11.32;3.42;;;12.30;99.90;;;12.10;95.02;100508.63;5041384;28;20128;-81
2024/02/15 08:37:47;;;;;;;10.65;3.08;;;12.30;99.90;;;12.08;94.95;100510.72;5041338;28;20529;-81
2024/02/15 08:40:15;;;;;;;14.52;3.80;;;12.30;99.90;;;12.06;95.02;100504.78;5023334;28;20501;-81
2024/02/15 08:42:43;;;;;;;13.02;3.95;;;12.20;99.90;;;12.10;95.00;100504.13;5022946;28;20049;-81
2024/02/15 08:45:12;;;;;;;8.88;3.17;;;12.20;99.90;;;12.08;95.02;100500.84;5041095;28;20091;-81
2024/02/15 08:47:42;;;;;;;15.32;3.58;;;12.20;99.90;;;12.07;95.11;100501.06;5039774;28;20128;-81
2024/02/15 08:50:17;;;;;;;16.52;4.07;;;12.20;99.90;;;12.07;95.31;100493.88;5039482;28;20042;-81
2024/02/15 08:52:44;;;;;;;12.30;3.63;;;12.20;99.90;;;12.08;95.53;100505.38;5021549;28;20424;-81
2024/02/15 08:55:14;;;;;;;9.63;3.97;;;12.20;99.90;;;12.10;95.61;100487.25;5005432;28;20053;-81
2024/02/15 08:57:43;;;;;;;13.40;3.47;;;12.20;99.90;;;12.13;95.35;100478.78;5006590;28;20532;-81
2024/02/15 09:00:16;;;;;;;14.75;3.50;;;12.20;99.90;;;12.09;95.52;100469.56;5038840;28;20049;-80
2024/02/15 09:02:45;;;;;;;11.45;3.05;;;12.20;99.90;;;12.06;95.38;100484.22;5039147;28;20046;-81
2024/02/15 09:05:14;;;;;;;8.93;2.90;;;12.20;99.90;;;12.10;95.40;100487.25;5038459;28;20115;-81
2024/02/15 09:07:42;;;;;;;14.43;3.88;;;12.30;99.90;;;12.16;95.61;100480.22;5020727;28;20152;-81
2024/02/15 09:10:11;;;;;;;12.10;3.40;;;12.30;99.90;;;12.18;95.84;100478.94;5039335;28;20038;-81
2024/02/15 09:12:39;;;;;;;12.82;3.20;;;12.30;99.90;;;12.21;96.15;100473.16;4994058;28;20460;-82
2024/02/15 09:15:09;;;;;;;7.70;2.75;;;12.40;99.90;;;12.18;96.24;100476.28;5019390;28;20053;-82
2024/02/15 09:17:38;;;;;;;9.23;3.33;;;12.40;99.90;;;12.21;96.21;100485.72;5019530;28;20050;-82
2024/02/15 09:20:14;;;;;;;9.10;3.47;;;12.40;99.90;;;12.22;96.24;100485.50;5001195;28;20045;-81
2024/02/15 09:22:42;;;;;;;12.98;3.35;;;12.40;99.90;;;12.22;96.45;100482.81;5000789;28;20054;-81
2024/02/15 09:25:11;;;;;;;8.73;3.13;;;12.40;99.90;;;12.25;96.10;100489.56;5018464;28;20050;-81
2024/02/15 09:27:38;;;;;;;12.73;3.80;;;12.40;99.90;;;12.22;96.16;100477.47;5000452;28;20399;-81
2024/02/15 09:30:10;;;;;;;11.82;3.80;;;12.40;99.90;;;12.18;95.77;100489.63;5018174;28;20042;-80
2024/02/15 09:32:37;;;;;;;7.47;2.97;;;12.40;99.90;;;12.14;95.74;100476.94;5017688;28;20041;-81
2024/02/15 09:35:07;;;;;;;7.43;2.80;;;12.40;99.90;;;12.16;95.37;100482.91;5017557;28;20493;-81
2024/02/15 09:37:38;;;;;;;9.65;2.95;;;12.40;99.90;;;12.17;95.66;100476.50;5017506;28;20056;-81
2024/02/15 09:40:10;;;;;;;7.45;2.67;;;12.50;99.90;;;12.22;95.81;100463.28;4999531;28;20421;-81
2024/02/15 09:42:39;;;;;;;8.90;2.53;;;12.50;99.90;;;12.22;95.64;100461.44;5017056;28;20042;-81
2024/02/15 09:45:10;;;;;;;9.27;2.83;;;12.50;99.90;;;12.18;94.93;100457.56;4983920;28;20056;-81
2024/02/15 09:47:40;;;;;;;9.52;3.05;;;12.50;99.90;;;12.23;95.10;100463.06;5000948;28;20461;-81
2024/02/15 09:50:11;;;;;;;9.93;2.83;;;12.50;99.90;;;12.28;95.09;100457.84;5016466;28;20448;-81
2024/02/15 09:52:40;;;;;;;6.57;2.60;;;12.60;99.90;;;12.33;94.98;100460.69;5014938;28;20050;-82
2024/02/15 09:55:13;;;;;;;8.43;2.78;;;12.60;99.90;;;12.37;94.86;100461.88;5015941;28;20057;-81
2024/02/15 09:57:40;;;;;;;9.55;2.72;;;12.60;99.90;;;12.33;93.79;100459.88;5015944;28;20049;-81
2024/02/15 10:00:13;;;;;;;10.45;2.78;;;12.60;99.90;;;12.34;93.46;100456.13;4999128;28;20047;-82
2024/02/15 10:02:42;;;;;;;13.27;2.70;;;12.60;99.90;;;12.35;93.28;100463.97;4985390;28;20583;-81
2024/02/15 10:05:11;;;;;;;11.02;2.85;;;12.60;99.90;;;12.33;92.81;100455.34;5017525;28;20053;-81
2024/02/15 10:07:40;;;;;;;10.90;2.92;;;12.60;99.90;;;12.37;92.79;100456.53;5018425;28;20597;-82
2024/02/15 10:10:19;;;;;;;10.45;2.20;;;12.60;99.90;;;12.40;92.46;100463.28;5017993;28;20036;-82
2024/02/15 10:12:51;;;;;;;8.23;2.20;;;12.70;99.90;;;12.44;92.73;100461.78;5033075;28;20112;-82
2024/02/15 10:15:33;;;;;;;11.60;2.60;;;12.70;99.90;;;12.49;92.77;100469.97;5018205;28;20049;-82
2024/02/15 10:18:02;;;;;;;8.32;2.72;;;12.70;99.90;;;12.54;93.08;100470.13;5017456;28;20046;-82
2024/02/15 10:20:31;;;;;;;13.65;2.88;;;12.80;99.90;;;12.56;93.06;100464.53;4982800;28;20502;-81